Ganado, Texas
Current Conditions -  °F | °C
As of 12:15 PM on Monday 22 Dec 2014 (Local Time) from KARM Reporting Station
Scattered Clouds Scattered Clouds  
Wind Chill: 69°   Ceiling: Unl
Heat Index: 69°   Visibility: 10mi
Dew Point: 62°   Wind: 14mph
Humidity: 76%   Direction: 220°SW
Pressure: 29.73"   Gusts: 21mph
Location:  29.04°N, 96.51°W
Report Text: KARM 221815Z AUTO 22012G18KT 10SM SCT019 SCT024 21/16 A2973 RMK AO2 T02080164
Loading
Personal Weather Stations






























Interactive Weather Map New forecast layout! Learn more

10-Day Weather Forecast

Advertisements
Track Severe Weather on mobile